Time;durP1;ratioP1;P1;durP2;ratioP2;P2;SDS_P1;SDS_P2;PMS_P1;PMS_P2;Temp;Humidity;BMP_temperature;BMP_pressure;BME280_temperature;BME280_humidity;BME280_pressure;Samples;Min_cycle;Max_cycle;Signal;HPM_P1;HPM_P2
2023/07/24 00:00:20;;;;;;;12.37;8.17;;;20.10;99.90;;;;;;5032328;28;20220;-68
2023/07/24 00:02:45;;;;;;;9.73;8.47;;;20.20;99.90;;;;;;5032431;28;20576;-68
2023/07/24 00:05:11;;;;;;;15.33;9.83;;;20.10;99.90;;;;;;5032383;28;20182;-68
2023/07/24 00:07:37;;;;;;;14.53;8.80;;;19.90;99.90;;;;;;5032403;28;20174;-68
2023/07/24 00:10:03;;;;;;;8.90;8.00;;;19.90;99.90;;;;;;5031913;28;20174;-68
2023/07/24 00:12:29;;;;;;;9.30;8.40;;;19.90;99.90;;;;;;5031537;28;20194;-68
2023/07/24 00:14:55;;;;;;;9.03;8.23;;;19.90;99.90;;;;;;5032188;28;20432;-68
2023/07/24 00:17:20;;;;;;;10.57;9.00;;;20.00;99.90;;;;;;5032530;28;20185;-68
2023/07/24 00:19:46;;;;;;;11.40;9.40;;;20.10;99.90;;;;;;5032233;28;20235;-68
2023/07/24 00:22:11;;;;;;;9.10;7.90;;;19.90;99.90;;;;;;5032451;28;20202;-68
2023/07/24 00:24:37;;;;;;;10.73;9.60;;;19.60;99.90;;;;;;5032234;28;20214;-68
2023/07/24 00:27:02;;;;;;;13.30;8.73;;;19.30;99.90;;;;;;5032301;28;20219;-68
2023/07/24 00:29:28;;;;;;;13.77;9.17;;;19.00;99.90;;;;;;5032128;28;20575;-67
2023/07/24 00:31:54;;;;;;;11.40;9.60;;;18.80;99.90;;;;;;5032021;28;20174;-68
2023/07/24 00:34:19;;;;;;;17.93;9.60;;;18.70;99.90;;;;;;5032226;28;20219;-68
2023/07/24 00:36:45;;;;;;;9.70;8.43;;;18.60;99.90;;;;;;5032096;28;20170;-68
2023/07/24 00:39:10;;;;;;;10.50;9.03;;;18.40;99.90;;;;;;5031846;28;20544;-68
2023/07/24 00:41:36;;;;;;;10.43;9.43;;;18.40;99.90;;;;;;5031711;28;20550;-67
2023/07/24 00:44:01;;;;;;;11.17;9.10;;;18.30;99.90;;;;;;5031551;28;20546;-67
2023/07/24 00:46:31;;;;;;;10.40;9.40;;;18.40;99.90;;;;;;5031627;28;20166;-68
2023/07/24 00:48:59;;;;;;;11.63;8.70;;;18.40;99.90;;;;;;5031668;28;20209;-68
2023/07/24 00:51:25;;;;;;;10.03;8.10;;;18.30;99.90;;;;;;5031625;28;20417;-68
2023/07/24 00:53:51;;;;;;;13.10;9.43;;;18.40;99.90;;;;;;5031542;28;20487;-67
2023/07/24 00:56:17;;;;;;;13.57;8.63;;;18.30;99.90;;;;;;5031617;28;20556;-68
2023/07/24 00:58:42;;;;;;;9.80;8.80;;;18.40;99.90;;;;;;5031259;28;20313;-68
2023/07/24 01:01:10;;;;;;;11.33;8.73;;;18.50;99.90;;;;;;5031562;28;20654;-68
2023/07/24 01:03:36;;;;;;;10.23;9.23;;;18.40;99.90;;;;;;5031351;28;20208;-67
2023/07/24 01:06:02;;;;;;;9.20;8.30;;;18.50;99.90;;;;;;5031484;28;20433;-68
2023/07/24 01:08:28;;;;;;;11.00;8.73;;;18.50;99.90;;;;;;5031442;28;20945;-67
2023/07/24 01:10:58;;;;;;;9.10;8.20;;;18.60;99.90;;;;;;5031507;28;20417;-67
2023/07/24 01:13:28;;;;;;;10.30;8.80;;;18.60;99.90;;;;;;5031312;28;20241;-68
2023/07/24 01:16:04;;;;;;;12.83;8.63;;;18.70;99.90;;;;;;5031624;28;20429;-68
2023/07/24 01:18:30;;;;;;;9.67;7.93;;;18.80;99.90;;;;;;5031296;28;20525;-68
2023/07/24 01:20:58;;;;;;;10.80;8.80;;;18.90;99.90;;;;;;5031317;28;20435;-68
2023/07/24 01:23:36;;;;;;;11.47;8.87;;;19.00;99.90;;;;;;5032498;28;20550;-68
2023/07/24 01:26:04;;;;;;;13.50;9.47;;;19.10;99.90;;;;;;5034930;28;20412;-68
2023/07/24 01:28:30;;;;;;;9.60;8.60;;;19.00;99.90;;;;;;5034551;28;20494;-67
2023/07/24 01:30:56;;;;;;;10.43;9.07;;;18.90;99.90;;;;;;5034857;28;20424;-68
2023/07/24 01:33:23;;;;;;;11.53;8.50;;;18.80;99.90;;;;;;5034778;28;20212;-68
2023/07/24 01:35:50;;;;;;;11.83;10.60;;;18.80;99.90;;;;;;5034849;28;20949;-68
2023/07/24 01:38:17;;;;;;;10.80;9.40;;;18.90;99.90;;;;;;5034426;28;20757;-67
2023/07/24 01:40:43;;;;;;;9.43;8.23;;;18.90;99.90;;;;;;5034693;28;20443;-68
2023/07/24 01:43:09;;;;;;;12.93;10.13;;;18.90;99.90;;;;;;5034409;28;20525;-68
2023/07/24 01:45:35;;;;;;;11.60;10.00;;;18.80;99.90;;;;;;5034496;28;20428;-68
2023/07/24 01:48:03;;;;;;;9.57;8.57;;;18.70;99.90;;;;;;5034505;28;20431;-68
2023/07/24 01:50:29;;;;;;;11.03;9.00;;;18.70;99.90;;;;;;5034311;28;20421;-68
2023/07/24 01:52:54;;;;;;;13.20;10.00;;;18.70;99.90;;;;;;5034400;28;20448;-68
2023/07/24 01:55:20;;;;;;;12.37;9.13;;;18.70;99.90;;;;;;5034353;28;20174;-68
2023/07/24 01:57:45;;;;;;;10.33;8.57;;;18.70;99.90;;;;;;5034507;28;20177;-68
2023/07/24 02:00:11;;;;;;;9.13;8.03;;;18.70;99.90;;;;;;5034086;28;20177;-68
2023/07/24 02:02:37;;;;;;;9.80;8.80;;;18.70;99.90;;;;;;5034101;28;20288;-67
2023/07/24 02:05:02;;;;;;;10.60;9.30;;;18.70;99.90;;;;;;5034196;28;20200;-68
2023/07/24 02:07:28;;;;;;;11.87;8.40;;;18.70;99.90;;;;;;5034159;28;20178;-68
2023/07/24 02:09:53;;;;;;;9.60;8.70;;;18.70;99.90;;;;;;5033791;28;20209;-68
2023/07/24 02:12:19;;;;;;;10.03;8.93;;;18.70;99.90;;;;;;5034221;28;20222;-68
2023/07/24 02:14:44;;;;;;;11.10;9.33;;;18.70;99.90;;;;;;5033999;28;20312;-68
2023/07/24 02:17:10;;;;;;;13.40;9.40;;;18.80;99.90;;;;;;5034089;28;20667;-68
2023/07/24 02:19:35;;;;;;;9.00;8.20;;;18.80;99.90;;;;;;5033773;28;20731;-68
2023/07/24 02:22:01;;;;;;;9.50;7.80;;;18.70;99.90;;;;;;5033913;28;20170;-68
2023/07/24 02:24:26;;;;;;;11.80;10.60;;;18.70;99.90;;;;;;5033801;28;20201;-68
2023/07/24 02:26:52;;;;;;;10.27;8.90;;;18.70;99.90;;;;;;5033806;28;20663;-68
2023/07/24 02:29:18;;;;;;;10.00;8.43;;;18.60;99.90;;;;;;5033482;28;20174;-67
2023/07/24 02:31:44;;;;;;;10.30;9.30;;;18.50;99.90;;;;;;5033774;28;20428;-67
2023/07/24 02:34:09;;;;;;;10.87;9.50;;;18.50;99.90;;;;;;5033602;28;20204;-68
2023/07/24 02:36:35;;;;;;;9.40;8.40;;;18.50;99.90;;;;;;5033180;28;20276;-68
2023/07/24 02:39:00;;;;;;;9.90;8.00;;;18.50;99.90;;;;;;5033271;28;20175;-68
2023/07/24 02:41:26;;;;;;;12.53;9.07;;;18.50;99.90;;;;;;5033628;28;20184;-68
2023/07/24 02:43:51;;;;;;;11.30;7.93;;;18.40;99.90;;;;;;5033475;28;20210;-68
2023/07/24 02:46:17;;;;;;;9.33;8.37;;;18.40;99.90;;;;;;5033639;28;20162;-68
2023/07/24 02:48:42;;;;;;;12.60;8.63;;;18.30;99.90;;;;;;5033087;28;20635;-68
2023/07/24 02:51:08;;;;;;;11.67;9.47;;;18.30;99.90;;;;;;5033407;28;20174;-68
2023/07/24 02:53:33;;;;;;;11.17;8.70;;;18.30;99.90;;;;;;5033188;28;20576;-68
2023/07/24 02:56:02;;;;;;;8.40;7.60;;;18.20;99.90;;;;;;5033455;28;20200;-68
2023/07/24 02:58:27;;;;;;;10.40;9.37;;;18.20;99.90;;;;;;5033056;28;20182;-68
2023/07/24 03:00:53;;;;;;;11.07;9.00;;;18.20;99.90;;;;;;5033280;28;20953;-68
2023/07/24 03:03:19;;;;;;;12.40;10.20;;;18.20;99.90;;;;;;5033062;28;20201;-68
2023/07/24 03:05:44;;;;;;;9.13;8.20;;;18.20;99.90;;;;;;5033167;28;20699;-68
2023/07/24 03:08:10;;;;;;;10.30;8.27;;;18.20;99.90;;;;;;5032814;28;20249;-67
2023/07/24 03:10:39;;;;;;;10.97;9.00;;;18.20;99.90;;;;;;5032989;28;20535;-68
2023/07/24 03:13:04;;;;;;;9.23;8.20;;;18.10;99.90;;;;;;5032949;28;20352;-68
2023/07/24 03:15:30;;;;;;;9.53;8.53;;;18.10;99.90;;;;;;5032969;28;20496;-68
2023/07/24 03:17:55;;;;;;;9.30;8.40;;;18.10;99.90;;;;;;5032872;28;20174;-68
2023/07/24 03:20:21;;;;;;;10.90;8.73;;;18.10;99.90;;;;;;5032606;28;20181;-68
2023/07/24 03:22:47;;;;;;;10.53;8.77;;;18.10;99.90;;;;;;5032590;28;20213;-67
2023/07/24 03:25:13;;;;;;;10.30;9.30;;;17.90;99.90;;;;;;5032829;28;20174;-67
2023/07/24 03:27:38;;;;;;;9.30;8.13;;;17.90;99.90;;;;;;5032660;28;20170;-67
2023/07/24 03:30:05;;;;;;;11.97;9.13;;;17.90;99.90;;;;;;5032408;28;20428;-68
2023/07/24 03:32:30;;;;;;;9.63;8.57;;;17.90;99.90;;;;;;5032614;28;20263;-68
2023/07/24 03:34:56;;;;;;;9.63;8.00;;;18.00;99.90;;;;;;5032725;28;20938;-67
2023/07/24 03:37:21;;;;;;;10.23;9.13;;;18.10;99.90;;;;;;5032484;28;20651;-68
2023/07/24 03:39:47;;;;;;;10.00;8.30;;;18.10;99.90;;;;;;5032419;28;20224;-68
2023/07/24 03:42:29;;;;;;;11.20;9.90;;;18.00;99.90;;;;;;5032631;28;20202;-68
2023/07/24 03:44:55;;;;;;;10.60;9.50;;;17.90;99.90;;;;;;5032474;28;20178;-68
2023/07/24 03:47:21;;;;;;;10.70;8.97;;;17.80;99.90;;;;;;5031579;28;20448;-68
2023/07/24 03:49:46;;;;;;;10.40;9.17;;;17.80;99.90;;;;;;5032019;28;20441;-68
2023/07/24 03:52:12;;;;;;;9.13;8.23;;;17.80;99.90;;;;;;5032391;28;20751;-68
2023/07/24 03:54:37;;;;;;;11.57;8.40;;;17.80;99.90;;;;;;5032478;28;20604;-68
2023/07/24 03:57:03;;;;;;;11.73;9.83;;;17.90;99.90;;;;;;5032330;28;20170;-68
2023/07/24 03:59:29;;;;;;;10.53;9.07;;;17.90;99.90;;;;;;5014447;28;20171;-68
2023/07/24 04:01:55;;;;;;;11.50;9.30;;;18.00;99.90;;;;;;5032084;28;20451;-67
2023/07/24 04:04:20;;;;;;;9.73;8.37;;;18.10;99.90;;;;;;5031981;28;20465;-68
2023/07/24 04:06:46;;;;;;;10.23;9.20;;;18.30;99.90;;;;;;5032156;28;20260;-67
2023/07/24 04:09:14;;;;;;;10.00;8.90;;;18.30;99.90;;;;;;5032056;28;20174;-68
2023/07/24 04:11:40;;;;;;;9.50;8.00;;;18.40;99.90;;;;;;5032044;28;20925;-68
2023/07/24 04:14:06;;;;;;;12.87;9.27;;;18.50;99.90;;;;;;5031856;28;20456;-68
2023/07/24 04:16:31;;;;;;;10.40;9.20;;;18.50;99.90;;;;;;5032024;28;20994;-68
2023/07/24 04:18:57;;;;;;;15.07;11.20;;;18.60;99.90;;;;;;5032080;28;20257;-68
2023/07/24 04:21:22;;;;;;;10.47;9.37;;;18.50;99.90;;;;;;5032306;28;20331;-68
2023/07/24 04:23:48;;;;;;;9.70;8.70;;;18.50;99.90;;;;;;5032323;28;20228;-68
2023/07/24 04:26:13;;;;;;;9.90;8.90;;;18.50;99.90;;;;;;5032403;28;20166;-68
2023/07/24 04:28:39;;;;;;;11.33;8.83;;;18.60;99.90;;;;;;5032396;28;20245;-68
2023/07/24 04:31:04;;;;;;;9.50;8.50;;;18.60;99.90;;;;;;5032262;28;20176;-68
2023/07/24 04:33:30;;;;;;;10.50;8.90;;;18.70;99.90;;;;;;5032144;28;20691;-68
2023/07/24 04:35:56;;;;;;;10.90;8.53;;;18.80;99.90;;;;;;5032407;28;20170;-68
2023/07/24 04:38:22;;;;;;;8.97;8.07;;;18.90;99.90;;;;;;5032170;28;20622;-68
2023/07/24 04:40:47;;;;;;;11.50;10.30;;;19.10;99.90;;;;;;5032027;28;20249;-68
2023/07/24 04:43:13;;;;;;;11.63;9.63;;;19.20;99.90;;;;;;5031618;28;20563;-68
2023/07/24 04:45:38;;;;;;;11.83;10.13;;;19.20;99.90;;;;;;5031684;28;20198;-68
2023/07/24 04:48:04;;;;;;;8.70;7.80;;;19.30;99.90;;;;;;5031628;28;20204;-68
2023/07/24 04:50:30;;;;;;;12.63;9.10;;;19.20;99.90;;;;;;5031717;28;20174;-68
2023/07/24 04:52:56;;;;;;;10.80;9.70;;;19.20;99.90;;;;;;5031613;28;20805;-68
2023/07/24 04:55:22;;;;;;;13.80;9.20;;;19.10;99.90;;;;;;5031791;28;20178;-68
2023/07/24 04:57:47;;;;;;;10.17;8.37;;;19.20;99.90;;;;;;5031986;28;20170;-67
2023/07/24 05:00:13;;;;;;;9.43;8.30;;;19.20;99.90;;;;;;5035199;28;20421;-68
2023/07/24 05:02:39;;;;;;;10.00;8.30;;;19.30;99.90;;;;;;5035240;28;20686;-68
2023/07/24 05:05:05;;;;;;;15.20;10.97;;;19.50;99.90;;;;;;5035961;28;20424;-68
2023/07/24 05:07:31;;;;;;;11.60;9.57;;;19.60;99.90;;;;;;5035352;28;20166;-68
2023/07/24 05:09:56;;;;;;;12.77;8.77;;;19.70;99.90;;;;;;5035026;28;20420;-68
2023/07/24 05:15:01;;;;;;;9.40;8.40;;;19.80;99.90;;;;;;5024173;28;20557;-67
2023/07/24 05:17:26;;;;;;;11.07;8.37;;;19.80;99.90;;;;;;5035309;28;20428;-67
2023/07/24 05:19:52;;;;;;;10.63;9.53;;;19.80;99.90;;;;;;5034992;28;20178;-67
2023/07/24 05:22:17;;;;;;;12.83;9.40;;;19.90;99.90;;;;;;5035209;28;20548;-67
2023/07/24 05:24:43;;;;;;;10.67;9.23;;;20.10;99.90;;;;;;5034952;28;20268;-67
2023/07/24 05:27:08;;;;;;;12.47;9.80;;;20.10;99.90;;;;;;5035146;28;20167;-67
2023/07/24 05:29:34;;;;;;;10.97;8.40;;;20.00;99.90;;;;;;5034540;28;20174;-67
2023/07/24 05:31:59;;;;;;;12.43;8.90;;;20.00;99.90;;;;;;5033761;28;20554;-67
2023/07/24 05:34:25;;;;;;;9.47;8.53;;;19.90;99.90;;;;;;5034884;28;20201;-67
2023/07/24 05:36:51;;;;;;;15.10;10.77;;;20.00;99.90;;;;;;5034853;28;20178;-67
2023/07/24 05:39:16;;;;;;;15.93;10.03;;;19.90;99.90;;;;;;5034558;28;20475;-67
2023/07/24 05:41:42;;;;;;;12.03;10.17;;;19.90;99.90;;;;;;5035012;28;20228;-67
2023/07/24 05:44:07;;;;;;;12.60;10.10;;;19.90;99.90;;;;;;5034477;28;20208;-67
2023/07/24 05:46:33;;;;;;;10.47;9.37;;;19.80;99.90;;;;;;5034817;28;20174;-67
2023/07/24 05:49:01;;;;;;;14.93;11.50;;;19.70;99.90;;;;;;5033909;28;20189;-67
2023/07/24 05:51:27;;;;;;;12.20;9.30;;;19.70;99.90;;;;;;5034633;28;20169;-67
2023/07/24 05:53:52;;;;;;;11.67;9.03;;;19.80;99.90;;;;;;5034491;28;20445;-67
2023/07/24 05:56:18;;;;;;;12.13;9.17;;;19.90;99.90;;;;;;5034565;28;20269;-67
2023/07/24 05:58:44;;;;;;;12.50;9.53;;;19.90;99.90;;;;;;5034039;28;20178;-67
2023/07/24 06:01:10;;;;;;;10.67;9.57;;;19.90;99.90;;;;;;5034642;28;20462;-67
2023/07/24 06:03:35;;;;;;;11.40;8.87;;;19.90;99.90;;;;;;5034251;28;20710;-67
2023/07/24 06:06:01;;;;;;;13.43;10.00;;;20.00;99.90;;;;;;5034430;28;20496;-67
2023/07/24 06:08:27;;;;;;;11.10;8.57;;;20.10;99.90;;;;;;5034016;28;20209;-67
2023/07/24 06:10:52;;;;;;;10.47;8.90;;;20.20;99.90;;;;;;5033388;28;20177;-67
2023/07/24 06:13:19;;;;;;;10.40;9.00;;;20.30;99.90;;;;;;5033898;28;20214;-67
2023/07/24 06:15:48;;;;;;;11.47;9.13;;;20.40;99.90;;;;;;5034234;28;20202;-67
2023/07/24 06:18:13;;;;;;;12.10;10.30;;;20.30;99.90;;;;;;5033790;28;20844;-67
2023/07/24 06:20:39;;;;;;;13.60;9.20;;;20.30;99.90;;;;;;5033981;28;20417;-67
2023/07/24 06:23:05;;;;;;;12.80;9.50;;;20.30;99.90;;;;;;5033962;28;20202;-67
2023/07/24 06:25:31;;;;;;;12.90;9.47;;;20.30;99.90;;;;;;5033920;28;20178;-67
2023/07/24 06:27:57;;;;;;;10.43;9.43;;;20.30;99.90;;;;;;5033835;28;20202;-67
2023/07/24 06:30:22;;;;;;;11.40;9.50;;;20.20;99.90;;;;;;5033627;28;20471;-67
2023/07/24 06:32:48;;;;;;;11.53;10.33;;;20.20;99.90;;;;;;5033783;28;20194;-67
2023/07/24 06:35:13;;;;;;;11.03;9.93;;;20.20;99.90;;;;;;5033880;28;20174;-67
2023/07/24 06:37:39;;;;;;;12.40;9.60;;;20.30;99.90;;;;;;5033745;28;20201;-67
2023/07/24 06:40:07;;;;;;;12.03;9.63;;;20.40;99.90;;;;;;5033382;28;20181;-67
2023/07/24 06:42:32;;;;;;;15.03;11.40;;;20.50;99.90;;;;;;5033501;28;20178;-67
2023/07/24 06:44:58;;;;;;;11.50;8.87;;;20.60;99.90;;;;;;5033622;28;20493;-67
2023/07/24 06:47:23;;;;;;;12.57;10.30;;;20.70;99.90;;;;;;5033687;28;20609;-67
2023/07/24 06:49:49;;;;;;;11.00;9.30;;;20.80;99.90;;;;;;5032732;28;20636;-67
2023/07/24 06:52:14;;;;;;;11.50;9.90;;;20.80;99.90;;;;;;5033586;28;20548;-67
2023/07/24 06:54:40;;;;;;;9.97;9.07;;;20.90;99.90;;;;;;5033370;28;20198;-67
2023/07/24 06:57:05;;;;;;;11.30;10.20;;;20.90;99.90;;;;;;5033377;28;20166;-67
2023/07/24 06:59:31;;;;;;;10.77;9.00;;;20.90;99.90;;;;;;5033052;28;20676;-67
2023/07/24 07:01:56;;;;;;;20.70;18.70;;;20.90;99.90;;;;;;5033409;28;20181;-67
2023/07/24 07:04:22;;;;;;;16.27;14.67;;;20.90;99.90;;;;;;5033241;28;20217;-67
2023/07/24 07:06:47;;;;;;;14.10;11.77;;;20.80;99.90;;;;;;5033106;28;20202;-67
2023/07/24 07:09:13;;;;;;;13.60;11.30;;;20.90;99.90;;;;;;5032818;28;20614;-67
2023/07/24 07:11:39;;;;;;;11.93;9.77;;;21.00;99.90;;;;;;5033298;28;20174;-67
2023/07/24 07:14:04;;;;;;;11.90;10.80;;;21.10;99.90;;;;;;5032941;28;20217;-67
2023/07/24 07:16:30;;;;;;;11.90;10.60;;;21.20;99.90;;;;;;5033124;28;20174;-67
2023/07/24 07:18:55;;;;;;;9.50;8.63;;;21.20;99.90;;;;;;5032728;28;20254;-67
2023/07/24 07:21:21;;;;;;;11.73;8.67;;;21.20;99.90;;;;;;5032777;28;20870;-67
2023/07/24 07:23:46;;;;;;;14.00;10.70;;;21.30;99.90;;;;;;5032930;28;20615;-67
2023/07/24 07:26:12;;;;;;;14.57;10.23;;;21.30;99.90;;;;;;5032790;28;20528;-67
2023/07/24 07:28:37;;;;;;;11.10;9.37;;;21.40;99.90;;;;;;5032300;28;20170;-67
2023/07/24 07:31:03;;;;;;;10.97;9.80;;;21.40;99.90;;;;;;5032750;28;20175;-67
2023/07/24 07:33:29;;;;;;;11.70;10.50;;;21.40;99.90;;;;;;5032418;28;20241;-67
2023/07/24 07:35:55;;;;;;;11.37;10.20;;;21.30;99.90;;;;;;5032421;28;20809;-67
2023/07/24 07:38:22;;;;;;;10.33;9.20;;;21.30;99.90;;;;;;5032285;28;20162;-67
2023/07/24 07:40:48;;;;;;;11.47;10.33;;;21.30;99.90;;;;;;5032492;28;20693;-67
2023/07/24 07:43:13;;;;;;;12.13;9.87;;;21.30;99.90;;;;;;5032278;28;20460;-67
2023/07/24 07:45:39;;;;;;;10.67;8.80;;;21.40;99.90;;;;;;5032639;28;20182;-67
2023/07/24 07:48:05;;;;;;;10.50;8.27;;;21.60;99.90;;;;;;5031906;28;20166;-67
2023/07/24 07:50:30;;;;;;;12.50;9.33;;;21.60;99.90;;;;;;5032335;28;20216;-67
2023/07/24 07:52:56;;;;;;;15.87;9.63;;;21.70;99.90;;;;;;5032369;28;20443;-67
2023/07/24 07:55:21;;;;;;;10.90;9.07;;;21.80;99.90;;;;;;5032384;28;20636;-67
2023/07/24 07:57:47;;;;;;;10.13;8.53;;;21.80;99.90;;;;;;5014548;28;20518;-67
2023/07/24 08:00:13;;;;;;;11.80;9.83;;;21.70;99.90;;;;;;5032037;28;20174;-67
2023/07/24 08:02:41;;;;;;;14.27;10.03;;;21.60;99.90;;;;;;5032050;28;20197;-67
2023/07/24 08:05:08;;;;;;;11.20;10.10;;;21.40;99.90;;;;;;5032362;28;21081;-67
2023/07/24 08:07:34;;;;;;;12.33;9.93;;;21.20;99.90;;;;;;5032100;28;20895;-67
2023/07/24 08:09:59;;;;;;;11.90;10.10;;;21.10;99.90;;;;;;5031893;28;20475;-67
2023/07/24 08:12:25;;;;;;;12.77;9.87;;;20.90;99.90;;;;;;5032116;28;20170;-67
2023/07/24 08:14:50;;;;;;;10.90;9.73;;;20.80;99.90;;;;;;5031980;28;20556;-67
2023/07/24 08:17:16;;;;;;;18.03;12.17;;;20.70;99.90;;;;;;5032033;28;20200;-67
2023/07/24 08:19:41;;;;;;;13.90;12.20;;;20.40;99.90;;;;;;5031709;28;20663;-67
2023/07/24 08:22:07;;;;;;;16.40;10.37;;;20.00;99.90;;;;;;5031934;28;20174;-67
2023/07/24 08:24:35;;;;;;;12.77;10.03;;;19.70;99.90;;;;;;5031830;28;20212;-67
2023/07/24 08:27:01;;;;;;;13.10;11.03;;;19.30;99.90;;;;;;5031970;28;20198;-67
2023/07/24 08:29:27;;;;;;;14.90;11.60;;;19.10;99.90;;;;;;5031752;28;20467;-67
2023/07/24 08:31:53;;;;;;;15.00;11.73;;;19.00;99.90;;;;;;5031866;28;20444;-67
2023/07/24 08:34:19;;;;;;;11.30;9.90;;;18.90;99.90;;;;;;5035194;28;20205;-67
2023/07/24 08:36:44;;;;;;;11.83;10.63;;;18.90;99.90;;;;;;5036221;28;20181;-67
2023/07/24 08:39:10;;;;;;;14.17;10.50;;;18.90;99.90;;;;;;5035959;28;20636;-68
2023/07/24 08:41:37;;;;;;;11.90;10.23;;;18.90;99.90;;;;;;5036024;28;20707;-68
2023/07/24 08:44:05;;;;;;;10.77;9.67;;;19.10;99.90;;;;;;5035709;28;20194;-67
2023/07/24 08:46:35;;;;;;;12.40;9.67;;;19.10;99.90;;;;;;5035777;28;20421;-67
2023/07/24 08:49:00;;;;;;;13.73;10.30;;;19.00;99.90;;;;;;5035600;28;20415;-67
2023/07/24 08:51:27;;;;;;;12.27;10.83;;;18.90;99.90;;;;;;5035844;28;20416;-67
2023/07/24 08:53:53;;;;;;;13.97;10.63;;;18.90;99.90;;;;;;5035583;28;20332;-67
2023/07/24 08:56:19;;;;;;;11.40;10.20;;;18.90;99.90;;;;;;5035731;28;20416;-67
2023/07/24 08:58:45;;;;;;;20.77;11.37;;;18.90;99.90;;;;;;5035421;28;20502;-67
2023/07/24 09:01:11;;;;;;;12.27;10.70;;;19.00;99.90;;;;;;5035562;28;20953;-67
2023/07/24 09:03:37;;;;;;;11.73;9.37;;;19.00;99.90;;;;;;5035464;28;20498;-67
2023/07/24 09:06:09;;;;;;;13.13;9.87;;;19.10;99.90;;;;;;5017925;28;20301;-67
2023/07/24 09:08:36;;;;;;;12.57;9.40;;;19.20;99.90;;;;;;5035369;28;20175;-67
2023/07/24 09:11:04;;;;;;;11.83;10.60;;;19.20;99.90;;;;;;5035418;28;20420;-67
2023/07/24 09:13:30;;;;;;;10.50;9.30;;;19.20;99.90;;;;;;5035336;28;20468;-67
2023/07/24 09:15:56;;;;;;;12.90;9.87;;;19.30;99.90;;;;;;5040251;28;20425;-68
2023/07/24 09:18:22;;;;;;;9.73;8.73;;;19.50;99.90;;;;;;5037994;28;20419;-68
2023/07/24 09:20:48;;;;;;;10.80;9.70;;;19.70;99.90;;;;;;5040393;28;20200;-66
2023/07/24 09:23:14;;;;;;;8.87;7.67;;;19.90;99.90;;;;;;5035044;28;20878;-66
2023/07/24 09:25:42;;;;;;;9.60;8.67;;;20.00;99.90;;;;;;5035128;28;20424;-66
2023/07/24 09:28:15;;;;;;;9.43;8.43;;;20.20;99.90;;;;;;5034905;28;20475;-67
2023/07/24 09:30:50;;;;;;;9.30;7.37;;;20.40;99.90;;;;;;5035052;28;20421;-67
2023/07/24 09:33:16;;;;;;;8.97;7.40;;;20.70;99.90;;;;;;5034955;28;20448;-67
2023/07/24 09:35:41;;;;;;;8.83;7.50;;;20.70;99.90;;;;;;5034894;28;20506;-67
2023/07/24 09:38:09;;;;;;;7.67;7.03;;;20.70;99.90;;;;;;5034767;28;20174;-67
2023/07/24 09:40:42;;;;;;;7.93;6.93;;;20.70;99.90;;;;;;5035078;28;20705;-67
2023/07/24 09:43:22;;;;;;;8.53;6.90;;;20.60;99.90;;;;;;5034664;28;20488;-67
2023/07/24 09:45:48;;;;;;;8.20;7.30;;;20.70;99.90;;;;;;5033510;28;20792;-67
2023/07/24 09:48:15;;;;;;;7.13;6.40;;;20.70;99.90;;;;;;5034640;28;20421;-67
2023/07/24 09:50:45;;;;;;;10.03;7.73;;;20.70;99.90;;;;;;5034791;28;20413;-67
2023/07/24 09:53:17;;;;;;;11.30;7.10;;;20.80;99.90;;;;;;5034625;28;20436;-67
2023/07/24 09:55:56;;;;;;;9.17;8.37;;;20.80;99.90;;;;;;5034770;28;20436;-67
2023/07/24 09:58:23;;;;;;;9.07;7.83;;;20.90;99.90;;;;;;5034957;28;20416;-67
2023/07/24 10:00:50;;;;;;;9.63;7.97;;;20.90;99.90;;;;;;5035487;28;21040;-67
2023/07/24 10:03:16;;;;;;;9.60;7.80;;;20.90;99.90;;;;;;5035510;28;20950;-67
2023/07/24 10:05:47;;;;;;;11.00;7.90;;;20.90;99.90;;;;;;5035377;28;20419;-67
2023/07/24 10:08:14;;;;;;;9.93;8.93;;;20.80;99.90;;;;;;5035694;28;20417;-67
2023/07/24 10:10:40;;;;;;;7.97;6.90;;;20.70;99.90;;;;;;5035396;28;20826;-66
2023/07/24 10:13:07;;;;;;;8.60;7.50;;;20.70;99.90;;;;;;5034088;28;20449;-66
2023/07/24 10:15:33;;;;;;;7.87;7.13;;;20.80;99.90;;;;;;5034200;28;20182;-66
2023/07/24 10:18:04;;;;;;;12.83;7.13;;;20.70;99.90;;;;;;5034219;28;20805;-66
2023/07/24 10:20:40;;;;;;;8.17;7.37;;;20.60;99.90;;;;;;5033926;28;20906;-66
2023/07/24 10:23:07;;;;;;;9.53;8.30;;;20.50;99.90;;;;;;5034445;28;20465;-66
2023/07/24 10:25:35;;;;;;;9.57;8.77;;;20.50;99.90;;;;;;5034263;28;20423;-66
2023/07/24 10:28:07;;;;;;;8.80;7.90;;;20.30;99.90;;;;;;5033964;28;20440;-66
2023/07/24 10:30:34;;;;;;;8.90;7.97;;;20.10;99.90;;;;;;5033580;28;20940;-66
2023/07/24 10:33:08;;;;;;;10.33;8.23;;;20.00;99.90;;;;;;5033778;28;20452;-66
2023/07/24 10:35:45;;;;;;;11.20;8.13;;;19.80;99.90;;;;;;5033788;28;20421;-66
2023/07/24 10:38:12;;;;;;;9.47;8.37;;;19.60;99.90;;;;;;5033555;28;20429;-66
2023/07/24 10:40:40;;;;;;;30.37;27.23;;;19.60;99.90;;;;;;5033611;28;20432;-66
2023/07/24 10:43:08;;;;;;;22.53;20.13;;;19.40;99.90;;;;;;5033653;28;20475;-66
2023/07/24 10:45:40;;;;;;;19.67;14.43;;;19.30;99.90;;;;;;5033892;28;20416;-67
2023/07/24 10:48:06;;;;;;;12.43;11.20;;;19.20;99.90;;;;;;5033555;28;20503;-67
2023/07/24 10:50:39;;;;;;;12.93;10.33;;;19.10;99.90;;;;;;5033419;28;20870;-67
2023/07/24 10:53:05;;;;;;;13.17;10.63;;;18.90;99.90;;;;;;5033493;28;20487;-67
2023/07/24 10:55:30;;;;;;;12.43;10.73;;;18.90;99.90;;;;;;5035550;28;20803;-66
2023/07/24 10:57:56;;;;;;;14.67;9.87;;;18.80;99.90;;;;;;5033353;28;20183;-67
2023/07/24 11:00:21;;;;;;;11.57;10.37;;;18.70;99.90;;;;;;5033089;28;20237;-67
2023/07/24 11:02:47;;;;;;;13.03;10.10;;;18.70;99.90;;;;;;5033164;28;20351;-67
2023/07/24 11:05:14;;;;;;;11.30;10.20;;;18.60;99.90;;;;;;5033137;28;20170;-67
2023/07/24 11:07:39;;;;;;;13.90;9.43;;;18.50;99.90;;;;;;5033167;28;20181;-67
2023/07/24 11:10:18;;;;;;;13.90;10.47;;;18.50;99.90;;;;;;5032895;28;20424;-67
2023/07/24 11:12:44;;;;;;;13.10;9.77;;;18.40;99.90;;;;;;5058119;22;20758;-66
2023/07/24 11:15:10;;;;;;;9.37;8.40;;;18.50;99.90;;;;;;5011475;28;20434;-68
2023/07/24 11:17:40;;;;;;;10.83;9.80;;;18.40;99.90;;;;;;5013176;28;20410;-68
2023/07/24 11:20:15;;;;;;;11.97;10.20;;;18.40;99.90;;;;;;5012993;28;20762;-70
2023/07/24 11:22:43;;;;;;;14.00;12.03;;;18.40;99.90;;;;;;5013057;28;20497;-69
2023/07/24 11:25:10;;;;;;;13.20;10.57;;;18.30;99.90;;;;;;5013193;28;20421;-69
2023/07/24 11:27:43;;;;;;;12.13;10.70;;;18.20;99.90;;;;;;5013124;28;20449;-69
2023/07/24 11:30:18;;;;;;;12.70;10.53;;;18.20;99.90;;;;;;5012770;28;20500;-69
2023/07/24 11:32:44;;;;;;;10.80;8.83;;;18.20;99.90;;;;;;5012938;28;20421;-67
2023/07/24 11:35:10;;;;;;;11.70;8.63;;;18.20;99.90;;;;;;5012981;28;20418;-67
2023/07/24 11:37:36;;;;;;;12.97;10.80;;;18.30;99.90;;;;;;5012899;28;20174;-66
2023/07/24 11:40:10;;;;;;;12.37;11.10;;;18.50;99.90;;;;;;5012536;28;20182;-68
2023/07/24 11:42:42;;;;;;;12.43;11.13;;;18.90;99.90;;;;;;5012864;28;20449;-67
2023/07/24 11:45:09;;;;;;;9.73;8.83;;;20.00;99.90;;;;;;5012883;28;20426;-67
2023/07/24 11:47:41;;;;;;;11.07;9.93;;;21.00;99.90;;;;;;5012822;28;20413;-67
2023/07/24 11:50:07;;;;;;;9.70;8.27;;;21.40;99.90;;;;;;5012355;28;20927;-66
2023/07/24 11:52:44;;;;;;;11.67;9.97;;;21.40;99.90;;;;;;5012537;28;20453;-66
2023/07/24 11:55:16;;;;;;;9.50;7.83;;;20.90;99.90;;;;;;5012680;28;20413;-68
2023/07/24 11:57:42;;;;;;;10.27;9.00;;;20.50;99.90;;;;;;5012513;28;20705;-67
2023/07/24 12:00:28;;;;;;;11.93;8.60;;;20.00;99.90;;;;;;5012230;28;20448;-67
2023/07/24 12:02:59;;;;;;;9.87;8.60;;;19.70;99.90;;;;;;5012079;28;20235;-68
2023/07/24 12:05:25;;;;;;;9.77;8.87;;;19.60;99.90;;;;;;5012412;28;20430;-67
2023/07/24 12:07:54;;;;;;;9.83;8.83;;;19.60;99.90;;;;;;5011722;28;20804;-67
2023/07/24 12:10:27;;;;;;;11.00;10.00;;;19.70;99.90;;;;;;5012188;28;20794;-68
2023/07/24 12:12:54;;;;;;;9.33;8.27;;;20.00;99.90;;;;;;5012062;28;20453;-68
2023/07/24 12:15:20;;;;;;;9.20;8.40;;;20.40;99.90;;;;;;5012282;28;20430;-67
2023/07/24 12:17:45;;;;;;;9.30;8.40;;;20.80;99.90;;;;;;5012225;28;20422;-67
2023/07/24 12:20:11;;;;;;;8.30;7.40;;;21.10;99.90;;;;;;5012050;28;20229;-68
2023/07/24 12:22:37;;;;;;;9.60;8.23;;;21.20;99.90;;;;;;5012299;28;20200;-68
2023/07/24 12:25:04;;;;;;;9.00;8.10;;;21.30;99.90;;;;;;5012316;28;20457;-68
2023/07/24 12:27:30;;;;;;;9.47;8.07;;;21.70;99.90;;;;;;5012166;28;20421;-68
2023/07/24 12:29:55;;;;;;;8.90;8.00;;;22.40;99.90;;;;;;5011826;28;20813;-68
2023/07/24 12:32:22;;;;;;;8.47;7.63;;;22.70;99.90;;;;;;5012195;28;20174;-67
2023/07/24 12:34:49;;;;;;;7.90;7.10;;;22.70;99.90;;;;;;5012014;28;20194;-68
2023/07/24 12:37:14;;;;;;;8.53;7.73;;;22.50;99.90;;;;;;5012183;28;21172;-68